sensor_id;sensor_type;location;lat;lon;timestamp;P1;durP1;ratioP1;P2;durP2;ratioP2
2041;SDS011;1026;51.460;7.252;2022-10-31T00:01:32;3.77;;;3.47;;
2041;SDS011;1026;51.460;7.252;2022-10-31T00:03:59;2.40;;;2.20;;
2041;SDS011;1026;51.460;7.252;2022-10-31T00:06:25;6.97;;;4.23;;
2041;SDS011;1026;51.460;7.252;2022-10-31T00:08:52;3.80;;;3.10;;
2041;SDS011;1026;51.460;7.252;2022-10-31T00:11:20;3.60;;;3.20;;
2041;SDS011;1026;51.460;7.252;2022-10-31T00:13:46;2.90;;;2.60;;
2041;SDS011;1026;51.460;7.252;2022-10-31T00:16:13;4.57;;;2.70;;
2041;SDS011;1026;51.460;7.252;2022-10-31T00:18:40;4.17;;;3.10;;
2041;SDS011;1026;51.460;7.252;2022-10-31T00:21:05;4.77;;;4.13;;
2041;SDS011;1026;51.460;7.252;2022-10-31T00:23:31;3.60;;;3.07;;
2041;SDS011;1026;51.460;7.252;2022-10-31T00:26:04;3.93;;;3.03;;
2041;SDS011;1026;51.460;7.252;2022-10-31T00:28:31;4.00;;;3.47;;
2041;SDS011;1026;51.460;7.252;2022-10-31T00:30:58;4.33;;;2.97;;
2041;SDS011;1026;51.460;7.252;2022-10-31T00:33:25;4.20;;;2.97;;
2041;SDS011;1026;51.460;7.252;2022-10-31T00:35:50;2.70;;;2.50;;
2041;SDS011;1026;51.460;7.252;2022-10-31T00:38:16;3.03;;;2.83;;
2041;SDS011;1026;51.460;7.252;2022-10-31T00:40:42;4.23;;;3.10;;
2041;SDS011;1026;51.460;7.252;2022-10-31T00:43:07;3.30;;;2.87;;
2041;SDS011;1026;51.460;7.252;2022-10-31T00:45:33;2.90;;;2.60;;
2041;SDS011;1026;51.460;7.252;2022-10-31T00:47:58;2.33;;;2.23;;
2041;SDS011;1026;51.460;7.252;2022-10-31T00:50:24;2.77;;;2.57;;
2041;SDS011;1026;51.460;7.252;2022-10-31T00:52:50;4.20;;;2.80;;
2041;SDS011;1026;51.460;7.252;2022-10-31T00:55:15;2.87;;;2.67;;
2041;SDS011;1026;51.460;7.252;2022-10-31T00:57:41;3.63;;;3.30;;
2041;SDS011;1026;51.460;7.252;2022-10-31T01:00:07;3.80;;;3.43;;
2041;SDS011;1026;51.460;7.252;2022-10-31T01:02:33;3.20;;;2.90;;
2041;SDS011;1026;51.460;7.252;2022-10-31T01:04:58;5.57;;;2.90;;
2041;SDS011;1026;51.460;7.252;2022-10-31T01:07:24;2.77;;;2.50;;
2041;SDS011;1026;51.460;7.252;2022-10-31T01:09:49;3.13;;;2.83;;
2041;SDS011;1026;51.460;7.252;2022-10-31T01:12:15;2.67;;;2.47;;
2041;SDS011;1026;51.460;7.252;2022-10-31T01:14:42;3.30;;;2.47;;
2041;SDS011;1026;51.460;7.252;2022-10-31T01:17:09;3.00;;;2.70;;
2041;SDS011;1026;51.460;7.252;2022-10-31T01:19:35;4.00;;;2.80;;
2041;SDS011;1026;51.460;7.252;2022-10-31T01:22:01;3.50;;;3.30;;
2041;SDS011;1026;51.460;7.252;2022-10-31T01:24:26;3.50;;;3.00;;
2041;SDS011;1026;51.460;7.252;2022-10-31T01:26:52;3.40;;;3.00;;
2041;SDS011;1026;51.460;7.252;2022-10-31T01:29:18;3.13;;;2.70;;
2041;SDS011;1026;51.460;7.252;2022-10-31T01:31:43;2.80;;;2.60;;
2041;SDS011;1026;51.460;7.252;2022-10-31T01:34:12;3.37;;;2.90;;
2041;SDS011;1026;51.460;7.252;2022-10-31T01:36:39;2.50;;;2.30;;
2041;SDS011;1026;51.460;7.252;2022-10-31T01:39:07;3.37;;;3.07;;
2041;SDS011;1026;51.460;7.252;2022-10-31T01:41:37;4.17;;;3.20;;
2041;SDS011;1026;51.460;7.252;2022-10-31T01:49:38;2.83;;;2.57;;
2041;SDS011;1026;51.460;7.252;2022-10-31T01:52:19;4.20;;;2.93;;
2041;SDS011;1026;51.460;7.252;2022-10-31T01:54:52;4.17;;;3.53;;
2041;SDS011;1026;51.460;7.252;2022-10-31T01:57:23;3.07;;;2.87;;
2041;SDS011;1026;51.460;7.252;2022-10-31T01:59:51;4.03;;;3.60;;
2041;SDS011;1026;51.460;7.252;2022-10-31T02:02:22;3.40;;;2.93;;
2041;SDS011;1026;51.460;7.252;2022-10-31T02:04:49;3.33;;;3.03;;
2041;SDS011;1026;51.460;7.252;2022-10-31T02:07:18;5.60;;;3.57;;
2041;SDS011;1026;51.460;7.252;2022-10-31T02:09:49;4.50;;;2.90;;
2041;SDS011;1026;51.460;7.252;2022-10-31T02:12:16;3.67;;;3.30;;
2041;SDS011;1026;51.460;7.252;2022-10-31T02:14:43;3.70;;;2.90;;
2041;SDS011;1026;51.460;7.252;2022-10-31T02:17:09;3.93;;;3.33;;
2041;SDS011;1026;51.460;7.252;2022-10-31T02:28:16;3.70;;;3.30;;
2041;SDS011;1026;51.460;7.252;2022-10-31T02:34:13;4.10;;;3.70;;
2041;SDS011;1026;51.460;7.252;2022-10-31T02:39:22;3.30;;;3.10;;
2041;SDS011;1026;51.460;7.252;2022-10-31T02:42:02;3.40;;;2.90;;
2041;SDS011;1026;51.460;7.252;2022-10-31T02:44:36;3.33;;;2.73;;
2041;SDS011;1026;51.460;7.252;2022-10-31T02:47:12;3.93;;;3.10;;
2041;SDS011;1026;51.460;7.252;2022-10-31T02:52:14;4.00;;;3.60;;
2041;SDS011;1026;51.460;7.252;2022-10-31T02:54:55;4.60;;;3.57;;
2041;SDS011;1026;51.460;7.252;2022-10-31T02:57:23;5.07;;;3.70;;
2041;SDS011;1026;51.460;7.252;2022-10-31T02:59:55;3.40;;;3.10;;
2041;SDS011;1026;51.460;7.252;2022-10-31T03:02:30;3.17;;;2.87;;
2041;SDS011;1026;51.460;7.252;2022-10-31T03:05:21;4.10;;;3.50;;
2041;SDS011;1026;51.460;7.252;2022-10-31T03:08:00;3.70;;;3.37;;
2041;SDS011;1026;51.460;7.252;2022-10-31T03:10:43;3.67;;;3.37;;
2041;SDS011;1026;51.460;7.252;2022-10-31T03:13:34;3.80;;;3.40;;
2041;SDS011;1026;51.460;7.252;2022-10-31T03:16:04;4.00;;;3.40;;
2041;SDS011;1026;51.460;7.252;2022-10-31T03:18:44;3.23;;;2.93;;
2041;SDS011;1026;51.460;7.252;2022-10-31T03:21:21;4.33;;;3.70;;
2041;SDS011;1026;51.460;7.252;2022-10-31T03:23:52;3.43;;;3.13;;
2041;SDS011;1026;51.460;7.252;2022-10-31T03:26:20;3.17;;;2.90;;
2041;SDS011;1026;51.460;7.252;2022-10-31T03:31:38;2.53;;;2.33;;
2041;SDS011;1026;51.460;7.252;2022-10-31T03:34:17;3.83;;;3.00;;
2041;SDS011;1026;51.460;7.252;2022-10-31T03:36:45;5.17;;;3.40;;
2041;SDS011;1026;51.460;7.252;2022-10-31T03:39:14;3.70;;;3.20;;
2041;SDS011;1026;51.460;7.252;2022-10-31T03:41:44;3.37;;;3.07;;
2041;SDS011;1026;51.460;7.252;2022-10-31T03:44:16;4.20;;;3.50;;
2041;SDS011;1026;51.460;7.252;2022-10-31T03:46:44;3.33;;;3.03;;
2041;SDS011;1026;51.460;7.252;2022-10-31T03:49:10;4.30;;;3.17;;
2041;SDS011;1026;51.460;7.252;2022-10-31T03:51:41;3.60;;;3.30;;
2041;SDS011;1026;51.460;7.252;2022-10-31T03:54:10;3.03;;;2.67;;
2041;SDS011;1026;51.460;7.252;2022-10-31T03:56:42;2.83;;;2.63;;
2041;SDS011;1026;51.460;7.252;2022-10-31T04:01:46;3.03;;;2.83;;
2041;SDS011;1026;51.460;7.252;2022-10-31T04:04:15;3.90;;;3.60;;
2041;SDS011;1026;51.460;7.252;2022-10-31T04:06:41;5.70;;;4.07;;
2041;SDS011;1026;51.460;7.252;2022-10-31T04:09:09;6.60;;;3.47;;
2041;SDS011;1026;51.460;7.252;2022-10-31T04:11:36;3.70;;;3.07;;
2041;SDS011;1026;51.460;7.252;2022-10-31T04:14:07;3.77;;;3.43;;
2041;SDS011;1026;51.460;7.252;2022-10-31T04:16:33;4.40;;;3.20;;
2041;SDS011;1026;51.460;7.252;2022-10-31T04:18:59;3.87;;;3.40;;
2041;SDS011;1026;51.460;7.252;2022-10-31T04:21:26;3.80;;;3.50;;
2041;SDS011;1026;51.460;7.252;2022-10-31T04:23:54;3.07;;;2.77;;
2041;SDS011;1026;51.460;7.252;2022-10-31T04:26:20;3.73;;;3.10;;
2041;SDS011;1026;51.460;7.252;2022-10-31T04:28:46;3.80;;;3.50;;
2041;SDS011;1026;51.460;7.252;2022-10-31T04:31:14;5.03;;;3.20;;
2041;SDS011;1026;51.460;7.252;2022-10-31T04:33:40;3.90;;;3.50;;
2041;SDS011;1026;51.460;7.252;2022-10-31T04:36:05;3.93;;;3.53;;
2041;SDS011;1026;51.460;7.252;2022-10-31T04:38:31;6.10;;;3.10;;
2041;SDS011;1026;51.460;7.252;2022-10-31T04:40:57;4.10;;;3.03;;
2041;SDS011;1026;51.460;7.252;2022-10-31T04:43:22;3.87;;;3.57;;
2041;SDS011;1026;51.460;7.252;2022-10-31T04:45:48;4.30;;;3.87;;
2041;SDS011;1026;51.460;7.252;2022-10-31T04:48:14;3.63;;;3.30;;
2041;SDS011;1026;51.460;7.252;2022-10-31T04:50:51;4.57;;;4.17;;
2041;SDS011;1026;51.460;7.252;2022-10-31T04:53:16;4.00;;;3.60;;
2041;SDS011;1026;51.460;7.252;2022-10-31T04:55:42;3.60;;;3.30;;
2041;SDS011;1026;51.460;7.252;2022-10-31T04:58:07;3.60;;;3.30;;
2041;SDS011;1026;51.460;7.252;2022-10-31T05:00:33;4.90;;;3.90;;
2041;SDS011;1026;51.460;7.252;2022-10-31T05:02:59;3.80;;;3.23;;
2041;SDS011;1026;51.460;7.252;2022-10-31T05:05:26;4.57;;;3.90;;
2041;SDS011;1026;51.460;7.252;2022-10-31T05:07:54;3.70;;;3.40;;
2041;SDS011;1026;51.460;7.252;2022-10-31T05:10:21;4.00;;;2.97;;
2041;SDS011;1026;51.460;7.252;2022-10-31T05:12:49;3.77;;;3.47;;
2041;SDS011;1026;51.460;7.252;2022-10-31T05:15:21;5.33;;;3.73;;
2041;SDS011;1026;51.460;7.252;2022-10-31T05:17:48;6.77;;;4.40;;
2041;SDS011;1026;51.460;7.252;2022-10-31T05:20:14;4.40;;;3.87;;
2041;SDS011;1026;51.460;7.252;2022-10-31T05:22:42;3.93;;;3.50;;
2041;SDS011;1026;51.460;7.252;2022-10-31T05:25:09;3.67;;;3.30;;
2041;SDS011;1026;51.460;7.252;2022-10-31T05:27:35;6.30;;;4.13;;
2041;SDS011;1026;51.460;7.252;2022-10-31T05:30:04;3.83;;;3.50;;
2041;SDS011;1026;51.460;7.252;2022-10-31T05:32:35;4.30;;;3.80;;
2041;SDS011;1026;51.460;7.252;2022-10-31T05:35:02;5.13;;;4.33;;
2041;SDS011;1026;51.460;7.252;2022-10-31T05:37:28;4.20;;;3.80;;
2041;SDS011;1026;51.460;7.252;2022-10-31T05:39:53;4.40;;;4.00;;
2041;SDS011;1026;51.460;7.252;2022-10-31T05:42:19;4.10;;;3.70;;
2041;SDS011;1026;51.460;7.252;2022-10-31T05:44:45;4.80;;;4.40;;
2041;SDS011;1026;51.460;7.252;2022-10-31T05:47:10;4.53;;;4.00;;
2041;SDS011;1026;51.460;7.252;2022-10-31T05:49:36;4.50;;;4.10;;
2041;SDS011;1026;51.460;7.252;2022-10-31T05:52:01;4.23;;;3.83;;
2041;SDS011;1026;51.460;7.252;2022-10-31T05:54:27;3.90;;;3.07;;
2041;SDS011;1026;51.460;7.252;2022-10-31T05:56:52;5.63;;;4.53;;
2041;SDS011;1026;51.460;7.252;2022-10-31T05:59:18;4.37;;;3.90;;
2041;SDS011;1026;51.460;7.252;2022-10-31T06:01:44;4.50;;;4.10;;
2041;SDS011;1026;51.460;7.252;2022-10-31T06:04:09;4.70;;;3.70;;
2041;SDS011;1026;51.460;7.252;2022-10-31T06:06:35;3.80;;;3.50;;
2041;SDS011;1026;51.460;7.252;2022-10-31T06:09:00;5.37;;;4.00;;
2041;SDS011;1026;51.460;7.252;2022-10-31T06:11:26;5.27;;;4.40;;
2041;SDS011;1026;51.460;7.252;2022-10-31T06:13:51;5.57;;;3.97;;
2041;SDS011;1026;51.460;7.252;2022-10-31T06:16:17;4.77;;;4.13;;
2041;SDS011;1026;51.460;7.252;2022-10-31T06:18:43;5.10;;;3.97;;
2041;SDS011;1026;51.460;7.252;2022-10-31T06:21:08;4.20;;;3.73;;
2041;SDS011;1026;51.460;7.252;2022-10-31T06:23:34;4.87;;;4.37;;
2041;SDS011;1026;51.460;7.252;2022-10-31T06:25:59;3.87;;;3.57;;
2041;SDS011;1026;51.460;7.252;2022-10-31T06:28:25;3.97;;;3.67;;
2041;SDS011;1026;51.460;7.252;2022-10-31T06:30:50;4.27;;;3.87;;
2041;SDS011;1026;51.460;7.252;2022-10-31T06:33:16;5.40;;;4.17;;
2041;SDS011;1026;51.460;7.252;2022-10-31T06:35:45;4.90;;;4.30;;
2041;SDS011;1026;51.460;7.252;2022-10-31T06:38:12;4.73;;;4.23;;
2041;SDS011;1026;51.460;7.252;2022-10-31T06:40:38;4.77;;;4.23;;
2041;SDS011;1026;51.460;7.252;2022-10-31T06:43:04;5.50;;;4.13;;
2041;SDS011;1026;51.460;7.252;2022-10-31T06:45:29;5.23;;;4.73;;
2041;SDS011;1026;51.460;7.252;2022-10-31T06:47:55;4.23;;;3.53;;
2041;SDS011;1026;51.460;7.252;2022-10-31T06:50:22;5.70;;;4.50;;
2041;SDS011;1026;51.460;7.252;2022-10-31T06:52:52;5.53;;;4.73;;
2041;SDS011;1026;51.460;7.252;2022-10-31T06:55:19;5.13;;;4.33;;
2041;SDS011;1026;51.460;7.252;2022-10-31T06:57:50;4.27;;;3.80;;
2041;SDS011;1026;51.460;7.252;2022-10-31T07:00:16;5.03;;;4.30;;
2041;SDS011;1026;51.460;7.252;2022-10-31T07:02:42;5.50;;;3.90;;
2041;SDS011;1026;51.460;7.252;2022-10-31T07:05:08;7.80;;;4.47;;
2041;SDS011;1026;51.460;7.252;2022-10-31T07:07:34;5.17;;;4.67;;
2041;SDS011;1026;51.460;7.252;2022-10-31T07:09:59;4.60;;;3.30;;
2041;SDS011;1026;51.460;7.252;2022-10-31T07:12:25;4.77;;;4.37;;
2041;SDS011;1026;51.460;7.252;2022-10-31T07:14:50;3.77;;;3.47;;
2041;SDS011;1026;51.460;7.252;2022-10-31T07:17:16;4.77;;;3.90;;
2041;SDS011;1026;51.460;7.252;2022-10-31T07:19:41;4.40;;;3.70;;
2041;SDS011;1026;51.460;7.252;2022-10-31T07:22:07;4.10;;;3.70;;
2041;SDS011;1026;51.460;7.252;2022-10-31T07:24:33;6.27;;;4.40;;
2041;SDS011;1026;51.460;7.252;2022-10-31T07:26:58;5.43;;;4.70;;
2041;SDS011;1026;51.460;7.252;2022-10-31T07:29:24;8.80;;;5.00;;
2041;SDS011;1026;51.460;7.252;2022-10-31T07:31:49;5.27;;;4.77;;
2041;SDS011;1026;51.460;7.252;2022-10-31T07:34:15;4.33;;;3.93;;
2041;SDS011;1026;51.460;7.252;2022-10-31T07:36:40;7.93;;;4.80;;
2041;SDS011;1026;51.460;7.252;2022-10-31T07:39:06;7.10;;;4.30;;
2041;SDS011;1026;51.460;7.252;2022-10-31T07:41:32;5.03;;;4.53;;
2041;SDS011;1026;51.460;7.252;2022-10-31T07:43:57;5.77;;;4.57;;
2041;SDS011;1026;51.460;7.252;2022-10-31T07:46:23;5.93;;;4.20;;
2041;SDS011;1026;51.460;7.252;2022-10-31T07:48:48;5.57;;;4.97;;
2041;SDS011;1026;51.460;7.252;2022-10-31T07:51:14;6.33;;;5.03;;
2041;SDS011;1026;51.460;7.252;2022-10-31T07:53:40;7.00;;;5.60;;
2041;SDS011;1026;51.460;7.252;2022-10-31T07:56:05;4.80;;;4.40;;
2041;SDS011;1026;51.460;7.252;2022-10-31T07:58:31;6.97;;;4.17;;
2041;SDS011;1026;51.460;7.252;2022-10-31T08:00:57;5.40;;;4.47;;
2041;SDS011;1026;51.460;7.252;2022-10-31T08:03:23;5.40;;;4.60;;
2041;SDS011;1026;51.460;7.252;2022-10-31T08:05:48;5.00;;;4.57;;
2041;SDS011;1026;51.460;7.252;2022-10-31T08:08:14;6.47;;;4.90;;
2041;SDS011;1026;51.460;7.252;2022-10-31T08:10:40;5.00;;;4.50;;
2041;SDS011;1026;51.460;7.252;2022-10-31T08:13:08;8.43;;;5.10;;
2041;SDS011;1026;51.460;7.252;2022-10-31T08:15:36;5.70;;;4.53;;
2041;SDS011;1026;51.460;7.252;2022-10-31T08:18:06;5.83;;;5.20;;
2041;SDS011;1026;51.460;7.252;2022-10-31T08:20:35;5.73;;;4.80;;
2041;SDS011;1026;51.460;7.252;2022-10-31T08:23:02;5.47;;;4.37;;
2041;SDS011;1026;51.460;7.252;2022-10-31T08:25:29;4.30;;;3.90;;
2041;SDS011;1026;51.460;7.252;2022-10-31T08:27:56;6.07;;;4.40;;
2041;SDS011;1026;51.460;7.252;2022-10-31T08:30:23;4.93;;;4.00;;
2041;SDS011;1026;51.460;7.252;2022-10-31T08:35:35;7.67;;;5.10;;
2041;SDS011;1026;51.460;7.252;2022-10-31T08:38:01;4.73;;;3.93;;
2041;SDS011;1026;51.460;7.252;2022-10-31T08:40:28;5.07;;;4.60;;
2041;SDS011;1026;51.460;7.252;2022-10-31T08:42:55;5.53;;;5.03;;
2041;SDS011;1026;51.460;7.252;2022-10-31T08:45:30;6.30;;;4.90;;
2041;SDS011;1026;51.460;7.252;2022-10-31T08:47:58;6.37;;;5.03;;
2041;SDS011;1026;51.460;7.252;2022-10-31T08:50:24;5.20;;;4.70;;
2041;SDS011;1026;51.460;7.252;2022-10-31T08:52:51;7.13;;;4.67;;
2041;SDS011;1026;51.460;7.252;2022-10-31T08:55:16;5.37;;;4.70;;
2041;SDS011;1026;51.460;7.252;2022-10-31T08:57:42;4.93;;;4.47;;
2041;SDS011;1026;51.460;7.252;2022-10-31T09:00:07;5.47;;;4.77;;
2041;SDS011;1026;51.460;7.252;2022-10-31T09:02:34;6.00;;;5.40;;
2041;SDS011;1026;51.460;7.252;2022-10-31T09:04:59;15.80;;;10.40;;
2041;SDS011;1026;51.460;7.252;2022-10-31T09:07:25;6.13;;;5.63;;
2041;SDS011;1026;51.460;7.252;2022-10-31T09:09:51;5.57;;;5.07;;
2041;SDS011;1026;51.460;7.252;2022-10-31T09:12:16;5.93;;;5.30;;
2041;SDS011;1026;51.460;7.252;2022-10-31T09:14:42;4.77;;;4.20;;
2041;SDS011;1026;51.460;7.252;2022-10-31T09:17:07;6.47;;;4.97;;
2041;SDS011;1026;51.460;7.252;2022-10-31T09:19:33;6.20;;;5.37;;
2041;SDS011;1026;51.460;7.252;2022-10-31T09:21:58;11.50;;;6.60;;
2041;SDS011;1026;51.460;7.252;2022-10-31T09:24:24;6.03;;;5.43;;
2041;SDS011;1026;51.460;7.252;2022-10-31T09:26:50;20.80;;;10.20;;
2041;SDS011;1026;51.460;7.252;2022-10-31T09:29:15;13.20;;;8.77;;
2041;SDS011;1026;51.460;7.252;2022-10-31T09:31:41;13.80;;;9.67;;
2041;SDS011;1026;51.460;7.252;2022-10-31T09:34:06;15.07;;;10.93;;
2041;SDS011;1026;51.460;7.252;2022-10-31T09:36:32;19.23;;;12.10;;
2041;SDS011;1026;51.460;7.252;2022-10-31T09:38:58;20.17;;;10.10;;
2041;SDS011;1026;51.460;7.252;2022-10-31T09:41:27;15.73;;;12.97;;
2041;SDS011;1026;51.460;7.252;2022-10-31T09:44:07;16.53;;;10.83;;
2041;SDS011;1026;51.460;7.252;2022-10-31T09:49:34;19.57;;;11.90;;
2041;SDS011;1026;51.460;7.252;2022-10-31T09:55:00;4.47;;;4.07;;
2041;SDS011;1026;51.460;7.252;2022-10-31T09:57:30;6.80;;;5.00;;
2041;SDS011;1026;51.460;7.252;2022-10-31T09:59:58;7.93;;;6.00;;
2041;SDS011;1026;51.460;7.252;2022-10-31T10:02:27;19.47;;;11.63;;
2041;SDS011;1026;51.460;7.252;2022-10-31T10:04:58;20.00;;;10.53;;
2041;SDS011;1026;51.460;7.252;2022-10-31T10:16:04;6.27;;;4.63;;
2041;SDS011;1026;51.460;7.252;2022-10-31T10:18:43;16.30;;;12.27;;
2041;SDS011;1026;51.460;7.252;2022-10-31T10:24:17;7.07;;;6.17;;
2041;SDS011;1026;51.460;7.252;2022-10-31T10:26:59;23.00;;;13.10;;
2041;SDS011;1026;51.460;7.252;2022-10-31T10:32:16;17.03;;;12.47;;
2041;SDS011;1026;51.460;7.252;2022-10-31T10:34:50;16.83;;;12.10;;
2041;SDS011;1026;51.460;7.252;2022-10-31T10:39:47;18.20;;;13.47;;
2041;SDS011;1026;51.460;7.252;2022-10-31T10:42:17;23.40;;;14.70;;
2041;SDS011;1026;51.460;7.252;2022-10-31T10:44:58;23.40;;;14.13;;
2041;SDS011;1026;51.460;7.252;2022-10-31T10:47:41;19.60;;;14.10;;
2041;SDS011;1026;51.460;7.252;2022-10-31T10:50:12;24.70;;;13.03;;
2041;SDS011;1026;51.460;7.252;2022-10-31T10:58:45;22.43;;;12.37;;
2041;SDS011;1026;51.460;7.252;2022-10-31T11:01:12;22.50;;;12.50;;
2041;SDS011;1026;51.460;7.252;2022-10-31T11:03:40;15.07;;;10.80;;
2041;SDS011;1026;51.460;7.252;2022-10-31T11:06:15;17.50;;;11.93;;
2041;SDS011;1026;51.460;7.252;2022-10-31T11:08:47;13.40;;;8.57;;
2041;SDS011;1026;51.460;7.252;2022-10-31T11:13:41;24.30;;;15.23;;
2041;SDS011;1026;51.460;7.252;2022-10-31T11:16:11;16.77;;;11.80;;
2041;SDS011;1026;51.460;7.252;2022-10-31T11:18:39;19.40;;;11.30;;
2041;SDS011;1026;51.460;7.252;2022-10-31T11:21:19;15.47;;;11.07;;
2041;SDS011;1026;51.460;7.252;2022-10-31T11:23:48;24.80;;;12.83;;
2041;SDS011;1026;51.460;7.252;2022-10-31T11:26:21;14.23;;;10.63;;
2041;SDS011;1026;51.460;7.252;2022-10-31T11:31:28;15.17;;;10.73;;
2041;SDS011;1026;51.460;7.252;2022-10-31T11:33:59;19.27;;;12.03;;
2041;SDS011;1026;51.460;7.252;2022-10-31T11:36:30;16.77;;;11.47;;
2041;SDS011;1026;51.460;7.252;2022-10-31T11:38:59;15.57;;;11.57;;
2041;SDS011;1026;51.460;7.252;2022-10-31T11:41:29;14.83;;;9.63;;
2041;SDS011;1026;51.460;7.252;2022-10-31T11:43:59;16.53;;;11.83;;
2041;SDS011;1026;51.460;7.252;2022-10-31T11:46:36;22.07;;;10.77;;
2041;SDS011;1026;51.460;7.252;2022-10-31T11:49:10;17.17;;;10.57;;
2041;SDS011;1026;51.460;7.252;2022-10-31T11:51:40;13.80;;;9.70;;
2041;SDS011;1026;51.460;7.252;2022-10-31T11:54:15;20.23;;;9.93;;
2041;SDS011;1026;51.460;7.252;2022-10-31T11:56:47;16.97;;;10.37;;
2041;SDS011;1026;51.460;7.252;2022-10-31T12:01:56;17.17;;;9.67;;
2041;SDS011;1026;51.460;7.252;2022-10-31T12:04:27;16.80;;;11.10;;
2041;SDS011;1026;51.460;7.252;2022-10-31T12:07:00;17.93;;;9.70;;
2041;SDS011;1026;51.460;7.252;2022-10-31T12:09:27;12.90;;;9.80;;
2041;SDS011;1026;51.460;7.252;2022-10-31T12:12:05;17.07;;;9.60;;
2041;SDS011;1026;51.460;7.252;2022-10-31T12:17:18;13.53;;;9.23;;
2041;SDS011;1026;51.460;7.252;2022-10-31T12:19:56;10.60;;;8.43;;
2041;SDS011;1026;51.460;7.252;2022-10-31T12:25:36;15.47;;;10.17;;
2041;SDS011;1026;51.460;7.252;2022-10-31T12:33:33;12.20;;;8.47;;
2041;SDS011;1026;51.460;7.252;2022-10-31T12:39:02;14.13;;;7.77;;
2041;SDS011;1026;51.460;7.252;2022-10-31T12:41:52;12.60;;;8.30;;
2041;SDS011;1026;51.460;7.252;2022-10-31T12:44:57;17.87;;;8.07;;
2041;SDS011;1026;51.460;7.252;2022-10-31T12:50:28;11.53;;;8.00;;
2041;SDS011;1026;51.460;7.252;2022-10-31T12:52:59;13.60;;;8.00;;
2041;SDS011;1026;51.460;7.252;2022-10-31T12:56:05;11.67;;;8.60;;
2041;SDS011;1026;51.460;7.252;2022-10-31T12:58:47;10.23;;;6.87;;
2041;SDS011;1026;51.460;7.252;2022-10-31T13:01:22;16.83;;;6.40;;
2041;SDS011;1026;51.460;7.252;2022-10-31T13:04:10;13.13;;;8.13;;
2041;SDS011;1026;51.460;7.252;2022-10-31T13:06:40;11.20;;;7.20;;
2041;SDS011;1026;51.460;7.252;2022-10-31T13:09:10;8.40;;;7.10;;
2041;SDS011;1026;51.460;7.252;2022-10-31T13:11:45;10.80;;;6.40;;
2041;SDS011;1026;51.460;7.252;2022-10-31T13:14:19;8.27;;;6.20;;
2041;SDS011;1026;51.460;7.252;2022-10-31T13:17:02;12.20;;;6.10;;
2041;SDS011;1026;51.460;7.252;2022-10-31T13:19:31;14.13;;;6.10;;
2041;SDS011;1026;51.460;7.252;2022-10-31T13:22:08;12.23;;;6.13;;
2041;SDS011;1026;51.460;7.252;2022-10-31T13:24:47;12.87;;;6.70;;
2041;SDS011;1026;51.460;7.252;2022-10-31T13:27:42;12.90;;;6.63;;
2041;SDS011;1026;51.460;7.252;2022-10-31T13:30:16;9.53;;;5.97;;
2041;SDS011;1026;51.460;7.252;2022-10-31T13:35:14;13.70;;;7.07;;
2041;SDS011;1026;51.460;7.252;2022-10-31T13:40:58;8.30;;;6.00;;
2041;SDS011;1026;51.460;7.252;2022-10-31T13:45:56;13.70;;;5.80;;
2041;SDS011;1026;51.460;7.252;2022-10-31T13:48:34;7.10;;;5.30;;
2041;SDS011;1026;51.460;7.252;2022-10-31T13:51:03;7.33;;;5.80;;
2041;SDS011;1026;51.460;7.252;2022-10-31T13:53:40;9.13;;;5.67;;
2041;SDS011;1026;51.460;7.252;2022-10-31T13:56:12;8.50;;;6.00;;
2041;SDS011;1026;51.460;7.252;2022-10-31T14:01:47;10.07;;;7.80;;
2041;SDS011;1026;51.460;7.252;2022-10-31T14:04:18;11.17;;;5.70;;
2041;SDS011;1026;51.460;7.252;2022-10-31T14:09:19;11.50;;;5.80;;
2041;SDS011;1026;51.460;7.252;2022-10-31T14:11:50;6.83;;;5.80;;
2041;SDS011;1026;51.460;7.252;2022-10-31T14:14:17;7.87;;;5.80;;
2041;SDS011;1026;51.460;7.252;2022-10-31T14:16:44;8.60;;;5.87;;
2041;SDS011;1026;51.460;7.252;2022-10-31T14:19:15;12.73;;;5.33;;
2041;SDS011;1026;51.460;7.252;2022-10-31T14:21:44;7.10;;;5.00;;
2041;SDS011;1026;51.460;7.252;2022-10-31T14:24:14;9.30;;;5.93;;
2041;SDS011;1026;51.460;7.252;2022-10-31T14:31:52;10.87;;;5.20;;
2041;SDS011;1026;51.460;7.252;2022-10-31T14:34:33;8.20;;;4.87;;
2041;SDS011;1026;51.460;7.252;2022-10-31T14:37:13;7.50;;;4.60;;
2041;SDS011;1026;51.460;7.252;2022-10-31T14:45:14;7.90;;;6.17;;
2041;SDS011;1026;51.460;7.252;2022-10-31T14:50:54;7.00;;;4.87;;
2041;SDS011;1026;51.460;7.252;2022-10-31T14:56:09;7.13;;;4.60;;
2041;SDS011;1026;51.460;7.252;2022-10-31T14:58:40;7.83;;;4.90;;
2041;SDS011;1026;51.460;7.252;2022-10-31T15:03:50;6.33;;;5.47;;
2041;SDS011;1026;51.460;7.252;2022-10-31T15:06:17;8.73;;;5.00;;
2041;SDS011;1026;51.460;7.252;2022-10-31T15:08:47;10.20;;;5.40;;
2041;SDS011;1026;51.460;7.252;2022-10-31T15:11:18;8.50;;;4.70;;
2041;SDS011;1026;51.460;7.252;2022-10-31T15:16:15;11.30;;;4.67;;
2041;SDS011;1026;51.460;7.252;2022-10-31T15:18:47;6.50;;;5.00;;
2041;SDS011;1026;51.460;7.252;2022-10-31T15:21:17;6.10;;;3.70;;
2041;SDS011;1026;51.460;7.252;2022-10-31T15:23:45;8.50;;;5.13;;
2041;SDS011;1026;51.460;7.252;2022-10-31T15:26:15;12.67;;;4.97;;
2041;SDS011;1026;51.460;7.252;2022-10-31T15:28:43;8.73;;;4.83;;
2041;SDS011;1026;51.460;7.252;2022-10-31T15:31:13;7.30;;;4.70;;
2041;SDS011;1026;51.460;7.252;2022-10-31T15:33:41;7.70;;;5.73;;
2041;SDS011;1026;51.460;7.252;2022-10-31T15:36:17;7.03;;;4.47;;
2041;SDS011;1026;51.460;7.252;2022-10-31T15:38:45;9.87;;;5.30;;
2041;SDS011;1026;51.460;7.252;2022-10-31T15:41:20;7.63;;;5.17;;
2041;SDS011;1026;51.460;7.252;2022-10-31T15:43:52;5.60;;;4.63;;
2041;SDS011;1026;51.460;7.252;2022-10-31T15:46:19;9.23;;;5.17;;
2041;SDS011;1026;51.460;7.252;2022-10-31T15:48:45;6.57;;;4.47;;
2041;SDS011;1026;51.460;7.252;2022-10-31T15:51:12;8.43;;;5.13;;
2041;SDS011;1026;51.460;7.252;2022-10-31T15:53:47;9.23;;;4.77;;
2041;SDS011;1026;51.460;7.252;2022-10-31T15:56:19;11.37;;;6.30;;
2041;SDS011;1026;51.460;7.252;2022-10-31T15:58:48;6.93;;;4.37;;
2041;SDS011;1026;51.460;7.252;2022-10-31T16:01:20;9.47;;;4.50;;
2041;SDS011;1026;51.460;7.252;2022-10-31T16:03:56;12.20;;;5.70;;
2041;SDS011;1026;51.460;7.252;2022-10-31T16:06:24;5.37;;;4.77;;
2041;SDS011;1026;51.460;7.252;2022-10-31T16:08:50;5.93;;;4.80;;
2041;SDS011;1026;51.460;7.252;2022-10-31T16:11:18;6.27;;;4.53;;
2041;SDS011;1026;51.460;7.252;2022-10-31T16:13:54;8.40;;;5.73;;
2041;SDS011;1026;51.460;7.252;2022-10-31T16:16:22;11.57;;;4.90;;
2041;SDS011;1026;51.460;7.252;2022-10-31T16:18:49;6.90;;;5.57;;
2041;SDS011;1026;51.460;7.252;2022-10-31T16:21:22;7.13;;;5.07;;
2041;SDS011;1026;51.460;7.252;2022-10-31T16:23:52;9.23;;;4.97;;
2041;SDS011;1026;51.460;7.252;2022-10-31T16:26:23;11.93;;;5.97;;
2041;SDS011;1026;51.460;7.252;2022-10-31T16:28:50;12.70;;;5.67;;
2041;SDS011;1026;51.460;7.252;2022-10-31T16:31:24;5.93;;;5.33;;
2041;SDS011;1026;51.460;7.252;2022-10-31T16:34:01;17.00;;;5.63;;
2041;SDS011;1026;51.460;7.252;2022-10-31T16:36:30;12.43;;;4.67;;
2041;SDS011;1026;51.460;7.252;2022-10-31T16:38:58;9.47;;;5.07;;
2041;SDS011;1026;51.460;7.252;2022-10-31T16:41:23;6.10;;;4.60;;
2041;SDS011;1026;51.460;7.252;2022-10-31T16:43:50;8.00;;;6.60;;
2041;SDS011;1026;51.460;7.252;2022-10-31T16:46:20;8.60;;;5.57;;
2041;SDS011;1026;51.460;7.252;2022-10-31T16:48:48;10.87;;;5.33;;
2041;SDS011;1026;51.460;7.252;2022-10-31T16:51:14;10.43;;;5.53;;
2041;SDS011;1026;51.460;7.252;2022-10-31T16:53:40;7.13;;;5.10;;
2041;SDS011;1026;51.460;7.252;2022-10-31T16:56:05;14.10;;;6.30;;
2041;SDS011;1026;51.460;7.252;2022-10-31T16:58:52;5.50;;;4.00;;
2041;SDS011;1026;51.460;7.252;2022-10-31T17:01:18;7.33;;;4.27;;
2041;SDS011;1026;51.460;7.252;2022-10-31T17:03:44;6.40;;;5.83;;
2041;SDS011;1026;51.460;7.252;2022-10-31T17:06:10;9.27;;;4.30;;
2041;SDS011;1026;51.460;7.252;2022-10-31T17:08:37;7.20;;;3.90;;
2041;SDS011;1026;51.460;7.252;2022-10-31T17:11:03;6.70;;;3.73;;
2041;SDS011;1026;51.460;7.252;2022-10-31T17:13:29;9.07;;;5.17;;
2041;SDS011;1026;51.460;7.252;2022-10-31T17:15:59;3.80;;;3.40;;
2041;SDS011;1026;51.460;7.252;2022-10-31T17:18:26;4.00;;;3.17;;
2041;SDS011;1026;51.460;7.252;2022-10-31T17:23:36;10.00;;;6.40;;
2041;SDS011;1026;51.460;7.252;2022-10-31T17:26:02;6.10;;;4.70;;